Latest Coastal Weather Observations for Weipa

IDQ60701

Issued at 2:01 pm EST Sunday 1 February 2015 (issued every 10 minutes, with the page automatically refreshed every 10 minutes)

About coastal observations | Map of coastal stations | Coastal observations for QLD | Marine services | Other Formats
Station Details ID: 027045 Name: WEIPA AERO Lat: -12.68 Lon: 141.92 Height: 17.96 m
Data from the previous 72 hours. | See also: Recent months at Weipa
Date/Time
EST
Temp

°C
Wind Pressure Rain
since 9am
mm
Weather Cloud Vis
km
Sea
Height
m
Swell
Dir
 
Speed
knots
Gust
knots
hPa Trend Height
m
Period
s
Dir
01/01:30pm 30.9 W 8 15 1006.8 - 0.0 - Partly cloudy 10 - - - -
01/01:00pm 31.2 W 9 15 1007.2 - 0.0 - Partly cloudy 10 - - - -
01/12:00pm 31.3 W 7 11 1008.0 S 0.0 Fine Mostly cloudy 30 - - - -
01/11:30am 30.8 W 6 10 1008.4 - 0.0 - Partly cloudy 10 - - - -
01/11:00am 30.6 W 4 8 1008.6 - 0.0 - Partly cloudy 10 - - - -
01/10:30am 30.8 WNW 4 10 1008.7 - 0.0 - Partly cloudy 10 - - - -
01/10:00am 29.8 NNW 4 9 1008.8 - 0.0 - Mostly clear 10 - - - -
01/09:00am 28.4 N 4 7 1008.5 R 0.0 Haze Mostly cloudy 20 - - - -
01/08:30am 27.5 N 2 4 1008.4 - 0.0 - - 10 - - - -
01/08:00am 26.6 NNE 2 3 1008.0 - 0.0 - Mostly clear 10 - - - -
01/07:30am 25.7 NE 1 3 1007.5 - 0.0 - - 10 - - - -
01/07:00am 25.2 NNE 1 2 1007.2 - 0.0 - Mostly clear 9 - - - -
01/06:30am 25.0 NNE 3 4 1006.9 - 0.0 Mist Mostly clear 5 - - - -
01/06:00am 25.1 NNE 1 2 1006.5 F 0.0 Shallow fog Partly cloudy 10 - - - -
01/05:30am 25.4 ENE 1 2 1006.5 - 0.0 - Partly cloudy 10 - - - -
01/05:00am 25.5 CALM 0 1 1006.2 - 0.0 - Partly cloudy 10 - - - -
01/04:30am 25.4 N 1 3 1006.1 - 0.0 - - 10 - - - -
01/04:00am 25.8 NNE 2 2 1006.3 - 0.0 - Partly cloudy 10 - - - -
01/03:30am 26.1 NNW 1 2 1006.4 - 0.0 - - 10 - - - -
01/03:00am 26.4 NNW 3 4 1006.5 - 0.0 - - 10 - - - -
01/02:30am 26.5 NNW 5 7 1006.5 - 0.0 - Partly cloudy 10 - - - -
01/02:00am 26.4 N 2 4 1006.9 - 0.0 - Partly cloudy 10 - - - -
01/01:30am 26.5 NNW 2 3 1007.3 - 0.0 - Partly cloudy 10 - - - -
01/01:00am 26.6 NNW 3 3 1007.6 - 0.0 - Partly cloudy 10 - - - -
01/12:30am 26.7 N 1 2 1007.9 - 0.0 - Partly cloudy 10 - - - -
01/12:00am 26.6 NW 4 5 1007.8 - 0.0 - - 10 - - - -
 
Date/Time
EST
Temp

°C
Wind Pressure Rain
since 9am
mm
Weather Cloud Vis
km
Sea
Height
m
Swell
Dir
 
Speed
knots
Gust
knots
hPa Trend Height
m
Period
s
Dir
31/11:30pm 27.1 NNW 3 4 1008.3 - 0.0 - - 10 - - - -
31/11:00pm 27.6 NW 5 7 1008.3 - 0.0 - - 10 - - - -
31/10:30pm 27.9 WNW 4 7 1008.3 - 0.0 - - 10 - - - -
31/10:00pm 28.0 WNW 4 6 1008.1 - 0.0 - Partly cloudy 10 - - - -
31/09:30pm 28.1 WNW 5 8 1007.8 - 0.0 - Partly cloudy 10 - - - -
31/09:00pm 28.4 WNW 4 7 1007.6 - 0.0 - Cloudy 10 - - - -
31/08:30pm 28.4 WNW 5 7 1007.6 - 0.0 - - 10 - - - -
31/08:00pm 28.4 WNW 5 10 1007.1 - 0.0 - Partly cloudy 10 - - - -
31/07:30pm 28.7 WNW 7 12 1006.8 - 0.0 - Partly cloudy 10 - - - -
31/07:00pm 28.9 WNW 6 10 1006.4 - 0.0 - Partly cloudy 10 - - - -
31/06:30pm 29.3 W 8 13 1006.3 - 0.0 - - 10 - - - -
31/06:00pm 29.8 W 8 14 1006.0 - 0.0 - Cloudy 10 - - - -
31/05:30pm 30.8 W 9 16 1006.0 - 0.0 - Partly cloudy 10 - - - -
31/05:00pm 30.9 W 8 17 1006.0 - 0.0 - - 10 - - - -
31/04:30pm 31.0 W 9 16 1005.8 - 0.0 - Partly cloudy 10 - - - -
31/04:00pm 31.2 W 9 15 1005.6 - 0.0 - - 10 - - - -
31/03:30pm 30.5 W 10 16 1005.9 - 0.0 - - 10 - - - -
31/03:00pm 30.6 W 11 18 1006.0 R 0.0 Recent precip. Partly cloudy 25 - - - -
31/02:30pm 31.8 W 8 18 1006.4 - 0.0 - Partly cloudy 10 - - - -
31/02:00pm 30.9 W 9 15 1006.7 - 0.0 - - 10 - - - -
31/01:30pm 31.5 W 9 15 1006.9 - 0.0 - - 10 - - - -
31/01:00pm 30.8 W 9 15 1007.4 - 0.0 - Partly cloudy 10 - - - -
31/12:30pm 30.8 W 9 17 1007.6 - 0.0 - Partly cloudy 10 - - - -
31/12:00pm 30.5 W 7 14 1007.6 - 0.0 - Cloudy 10 - - - -
31/11:30am 31.1 W 8 15 1007.9 - 0.0 - Partly cloudy 10 - - - -
31/11:00am 31.0 WNW 6 10 1008.1 - 0.0 - Partly cloudy 10 - - - -
31/10:30am 30.3 WNW 8 14 1008.2 - 0.0 - Partly cloudy 10 - - - -
31/10:00am 30.5 WNW 7 13 1008.3 - 0.0 - Partly cloudy 10 - - - -
31/09:30am 29.8 WNW 7 12 1008.3 - 0.0 - Partly cloudy 10 - - - -
31/09:00am 29.5 NW 8 11 1008.0 R 0.0 Haze Partly cloudy 20 - - - -
31/08:30am 29.2 NW 6 9 1008.2 - 0.0 - - 10 - - - -
31/08:00am 28.2 NW 4 6 1007.9 - 0.0 - - 10 - - - -
31/07:30am 26.4 CALM 0 1 1007.4 - 0.0 - - 10 - - - -
31/07:00am 25.4 CALM 0 1 1006.9 - 0.0 - - 10 - - - -
31/06:30am 25.3 NE 1 2 1006.6 - 0.0 - - 8 - - - -
31/06:00am 25.1 NNE 1 2 1006.2 F 0.0 Haze Partly cloudy 15 - - - -
31/05:30am 25.1 CALM 0 1 1006.2 - 0.0 - Partly cloudy 8 - - - -
31/05:00am 25.2 ENE 1 2 1006.0 - 0.0 - Partly cloudy 9 - - - -
31/04:30am 25.1 NNE 2 2 1006.0 - 0.0 - - 9 - - - -
31/04:00am 25.2 N 1 3 1006.2 - 0.0 - - 9 - - - -
31/03:30am 25.5 CALM 0 1 1006.5 - 0.0 - - 10 - - - -
31/03:00am 25.6 CALM 0 1 1006.6 - 0.0 - Cloudy 10 - - - -
31/02:30am 25.7 NNE 2 3 1007.0 - 0.0 - Partly cloudy 10 - - - -
31/02:00am 26.2 CALM 0 1 1007.3 - 0.0 - Partly cloudy 10 - - - -
31/01:30am 26.4 NNW 1 2 1007.4 - 0.0 - - 10 - - - -
31/01:00am 26.9 W 2 5 1007.6 - 0.0 - - 10 - - - -
31/12:30am 27.2 W 4 7 1008.0 - 0.0 - - 10 - - - -
31/12:00am 27.5 WNW 5 8 1008.1 - 0.0 - Cloudy 10 - - - -
 
Date/Time
EST
Temp

°C
Wind Pressure Rain
since 9am
mm
Weather Cloud Vis
km
Sea
Height
m
Swell
Dir
 
Speed
knots
Gust
knots
hPa Trend Height
m
Period
s
Dir
30/11:30pm 27.8 NW 6 10 1008.6 - 0.0 - Partly cloudy 10 - - - -
30/11:00pm 27.6 WNW 5 7 1008.7 - 0.0 - - 10 - - - -
30/10:30pm 27.7 WNW 4 9 1008.6 - 0.0 - Partly cloudy 10 - - - -
30/10:00pm 27.9 WNW 6 11 1008.2 - 0.0 - Partly cloudy 10 - - - -
30/09:30pm 27.9 WNW 6 9 1007.8 - 0.0 - Partly cloudy 10 - - - -
30/09:00pm 28.0 WNW 6 9 1007.0 - 0.0 - Cloudy 10 - - - -
30/08:30pm 28.3 WNW 5 9 1007.1 - 0.0 - Partly cloudy 10 - - - -
30/08:00pm 28.2 WNW 5 8 1006.7 - 0.0 - Partly cloudy 10 - - - -
30/07:30pm 28.5 W 6 9 1006.3 - 0.0 - - 10 - - - -
30/07:00pm 28.8 WNW 7 11 1006.2 - 0.0 - - 10 - - - -
30/06:30pm 29.5 W 7 12 1005.9 - 0.0 - - 10 - - - -
30/06:00pm 29.9 W 10 16 1005.4 - 0.0 - - 10 - - - -
30/05:30pm 29.7 W 9 17 1005.4 - 0.0 - Partly cloudy 10 - - - -
30/05:00pm 29.4 W 10 17 1005.2 - 0.0 - - 10 - - - -
30/04:30pm 30.8 W 10 20 1005.2 - 0.0 - Partly cloudy 10 - - - -
30/04:00pm 31.1 W 10 19 1005.3 - 0.0 - Partly cloudy 10 - - - -
30/03:30pm 31.2 W 10 17 1005.3 - 0.0 - Partly cloudy 10 - - - -
30/03:00pm 31.2 W 10 18 1005.3 S 0.0 Fine Mostly cloudy 30 - - - -
30/02:30pm 30.5 WNW 11 18 1005.7 - 0.0 - Partly cloudy 10 - - - -
30/02:00pm 31.7 WNW 12 21 1006.1 - 0.0 - Partly cloudy 10 - - - -
30/01:30pm 31.7 WNW 14 21 1006.2 - 0.0 - - 10 - - - -
30/01:00pm 31.5 WNW 12 17 1006.5 - 0.0 - - 10 - - - -
30/12:30pm 31.5 NW 13 20 1006.8 - 0.0 - Partly cloudy 10 - - - -
30/12:00pm 31.3 WNW 11 18 1007.0 - 0.0 - Cloudy 10 - - - -
30/11:30am 30.3 WNW 11 18 1007.3 - 0.0 - Partly cloudy 10 - - - -
30/11:00am 30.3 WNW 11 16 1007.4 - 0.0 - Partly cloudy 10 - - - -
30/10:30am 30.7 NW 10 15 1007.5 - 0.0 - Partly cloudy 10 - - - -
30/10:00am 30.0 WNW 7 13 1007.7 - 0.0 - Partly cloudy 10 - - - -
30/09:30am 29.6 NW 6 11 1007.7 - 0.0 - Partly cloudy 10 - - - -
30/09:00am 29.3 NW 8 12 1007.4 R 0.0 Fine Partly cloudy 30 - - - -
30/08:30am 28.0 NNW 7 10 1007.5 - 0.0 - Partly cloudy 10 - - - -
30/08:00am 26.9 NNW 4 5 1007.2 - 0.0 - - 10 - - - -
30/07:30am 25.5 N 4 5 1006.9 - 0.0 - - 10 - - - -
30/07:00am 24.5 N 2 2 1006.6 - 0.0 - - 10 - - - -
30/06:30am 24.3 N 1 2 1006.1 - 0.0 - - 10 - - - -
30/06:00am 24.4 N 2 3 1005.6 F 0.0 Haze Partly cloudy 20 - - - -
30/05:30am 24.4 N 2 2 1005.5 - 0.0 - - 10 - - - -
30/05:00am 24.6 N 3 3 1005.4 - 0.0 - - 10 - - - -
30/04:30am 24.6 N 3 4 1005.3 - 0.0 - - 10 - - - -
30/04:00am 24.5 N 1 1 1005.6 - 0.0 - - 10 - - - -
30/03:30am 24.8 CALM 0 0 1005.8 - 0.0 - Partly cloudy 10 - - - -
30/03:00am 24.8 NW 1 2 1005.7 - 0.0 - Cloudy 10 - - - -
30/02:30am 24.9 N 2 3 1006.0 - 0.0 - - 10 - - - -
30/02:00am 25.0 CALM 0 2 1006.0 - 0.0 - - 10 - - - -
30/01:30am 25.1 N 2 3 1006.4 - 0.0 - - 10 - - - -
30/01:00am 25.2 N 3 4 1006.8 - 0.0 - - 10 - - - -
30/12:30am 25.2 N 2 3 1007.0 - 0.0 - - 10 - - - -
30/12:00am 25.1 N 3 4 1007.0 - 0.0 - - 10 - - - -
 
Date/Time
EST
Temp

°C
Wind Pressure Rain
since 9am
mm
Weather Cloud Vis
km
Sea
Height
m
Swell
Dir
 
Speed
knots
Gust
knots
hPa Trend Height
m
Period
s
Dir
29/11:30pm 25.2 N 2 2 1007.1 - 0.0 - - 10 - - - -
29/11:00pm 25.3 NE 1 2 1007.2 - 0.0 - - 10 - - - -
29/10:30pm 25.3 N 1 2 1007.2 - 0.0 - - 10 - - - -
29/10:00pm 25.3 N 2 3 1006.9 - 0.0 - - 10 - - - -
29/09:30pm 25.6 N 2 4 1006.6 - 0.0 - - 10 - - - -
29/09:00pm 25.8 N 2 3 1006.2 - 0.0 - - 10 - - - -
29/08:30pm 26.0 NNW 3 3 1006.2 - 0.0 - - 10 - - - -
29/08:00pm 26.3 NNW 2 3 1006.0 - 0.0 - - 10 - - - -
29/07:30pm 26.7 NNW 3 4 1005.7 - 0.0 - - 10 - - - -
29/07:00pm 27.0 NW 3 5 1005.0 - 0.0 - - 10 - - - -
29/06:30pm 27.4 WNW 3 5 1004.5 - 0.0 - - 10 - - - -
29/06:00pm 27.5 WNW 3 4 1004.1 - 0.0 - - 10 - - - -
29/05:30pm 27.5 W 3 5 1004.1 - 0.0 - - 10 - - - -
29/05:00pm 27.6 WSW 3 6 1003.5 - 0.0 - - 10 - - - -
29/04:30pm 27.6 S 3 4 1003.3 - 0.0 - Partly cloudy 10 - - - -
29/04:00pm 27.4 SW 3 6 1003.4 - 0.0 - Partly cloudy 10 - - - -
29/03:30pm 27.3 W 3 6 1003.5 - 0.0 - - 10 - - - -
29/03:00pm 27.1 W 4 7 1003.8 F 0.0 Fine Mostly cloudy 35 - - - -
29/02:30pm 27.0 WSW 5 8 1004.0 - 0.0 - - 10 - - - -

Other Formats:

Comma delimited format used in spreadsheet applications
http://www.bom.gov.au/fwo/IDQ60701/IDQ60701.94170.axf

JavaScript Object Notation format (JSON) in row-major order
http://www.bom.gov.au/fwo/IDQ60701/IDQ60701.94170.json